Rakitna Rakitna

Učna pot


Verjetnost toče več informacij Hail probability


Moja kamera več informacij My webcam


Cestna kamera več informacij Road camera


ARSO, spremljajte nas več informacij


Obiščite še:

Template documentacija
in prenos

in še drugo stran



Posebna pozornost v zvezi z vremenskimi dogajanji ni potrebna.    Posebna pozornost v zvezi z vremenskimi dogajanji ni potrebna.

METAR v bližini

   
LJLJ - Ljubljana
Posodobljeno: 24-05-2019 11:00
nekaj oblakov  
nekaj oblakov  
   Veter: VSV 7.4 km/h
Veter: VSV 7.4 km/h
Temperatura: 19°C
Točka rosišča: 11°C
Vlažnost: 60%
Zračni tlak: 1014 hPa
Oblaki: nekaj oblakov
Vidljivost: več kot 10 km
Podrobnosti o oblakih: nekaj oblakov 4000 ft
LJLJ 240900Z 06004KT 010V110 9999 FEW040 19/11 Q1014 NOSIG
LJCE - Cerklje ob Krki
Posodobljeno: 24-05-2019 11:00
nekaj oblakov  
nekaj oblakov  
   Veter: Vzhod 3.7 km/h
Veter: Vzhod 3.7 km/h
Temperatura: 20°C
Točka rosišča: 10°C
Vlažnost: 53%
Zračni tlak: 1015 hPa
Oblaki: nekaj oblakov
Vidljivost: več kot 10 km
Podrobnosti o oblakih: nekaj oblakov 4500 ft
LJCE 240900Z 10002KT 9999 FEW045 20/10 Q1015 RMK BLU
LJMB - Maribor
Posodobljeno: 24-05-2019 11:00
nekaj oblakov  
nekaj oblakov  
   Veter: različen 3.7 km/h
Veter: različen 3.7 km/h
Temperatura: 20°C
Točka rosišča: 9°C
Vlažnost: 49%
Zračni tlak: 1015 hPa
Oblaki: nekaj oblakov
Vidljivost: več kot 10 km
Podrobnosti o oblakih: nekaj oblakov 3300 ft
LJMB 240900Z VRB02KT 9999 FEW033 20/09 Q1015
LJPZ - Portorož
Posodobljeno: 24-05-2019 11:00
nekaj oblakov  
nekaj oblakov  
   Veter: SZ 9.3 km/h
Veter: SZ 9.3 km/h
Temperatura: 20°C
Točka rosišča: 15°C
Vlažnost: 73%
Zračni tlak: 1013 hPa
Oblaki: nekaj oblakov
Vidljivost: več kot 10 km
Podrobnosti o oblakih: nekaj oblakov 3000 ft
LJPZ 240900Z 31005KT 270V340 9999 FEW030 20/15 Q1013
LDRI - Rijeka, Airport, Croatia
Posodobljeno: 24-05-2019 11:30
nekaj oblakov  
nekaj oblakov  
   Veter: Zahod 9.3 km/h
Veter: Zahod 9.3 km/h
Temperatura: 21°C
Točka rosišča: 13°C
Vlažnost: 60%
Zračni tlak: 1014 hPa
Oblaki: nekaj oblakov
Vidljivost: več kot 10 km
Podrobnosti o oblakih: nekaj oblakov 5900 ft
LDRI 240930Z 28005KT 200V300 9999 FEW059 21/13 Q1014
LOWK - Klagenfurt, Airport, Avstia
Posodobljeno: 24-05-2019 11:20
nekaj oblakov  
nekaj oblakov  
   Veter: SSZ 5.6 km/h
Veter: SSZ 5.6 km/h
Temperatura: 19°C
Točka rosišča: 6°C
Vlažnost: 43%
Zračni tlak: 1015 hPa
Oblaki: nekaj oblakov
Vidljivost: več kot 10 km
Podrobnosti o oblakih: nekaj oblakov 5000 ft
LOWK 240920Z 34003KT 300V050 9999 FEW050 19/06 Q1015 NOSIG

Script developed by  Saratoga-weather.org Adapted for the template by  Weerstation Leuven

Vremenski podatki so objavljeni na:

Weather Underground

Slovenska vremenska mreža

WeatherlinkIP

MapView

Geostik

Oprema, ki se uporablja:

Vremenska postaja
Davis VP2+ ventilirana

Vremenski program
WeatherLink

Vremenski server
Shuttle XS35V4

Ponudnik
Vremensko društvo ZEVS

Davis VP2+ ventilirana

WeatherLink

Shuttle XS35V4

Vremensko društvo ZEVS

Meteorološki podatki vremenske postaje Rakitna so neuradni, meteorološka postaja sama pa ni del državne mreže Agencije Republike Slovenije za okolje (ARSO),
je pa vključena v Vremensko društvo ZEVS. Prikazani podatki so izmerjeni točno, vendar so zgolj informativni in nimajo značaja uradnega podatka.

Podatke meri vremenska postaja "Davis VP2+ ventilirana" od 05.03.2011 dalje.

Opozarjamo, da ne prevzamemo odgovornosti za morebitno nastalo škodo, ki bi nastala zaradi odločitve, sprejete na osnovi teh podatkov!